Time,TemperatureF,DewpointF,PressureIn,WindDirection,WindDirectionDegrees,WindSpeedMPH,WindSpeedGustMPH,Humidity,HourlyPrecipIn,Conditions,Clouds,dailyrainin,SoftwareType,DateUTC
2013-03-30 00:08:00,32.0,27.0,30.00,NNW,336,0.0,0.0,83,0.00,,,0.00,weatherlink.com 1.10,2013-03-30 04:08:00,
2013-03-30 00:23:00,31.9,28.0,30.00,NNW,336,0.0,0.0,84,0.00,,,0.00,weatherlink.com 1.10,2013-03-30 04:23:00,
2013-03-30 00:38:00,31.9,28.0,30.00,NNW,336,0.0,0.0,84,0.00,,,0.00,weatherlink.com 1.10,2013-03-30 04:38:00,
2013-03-30 00:53:00,31.8,28.0,30.00,NNW,336,0.0,0.0,84,0.00,,,0.00,weatherlink.com 1.10,2013-03-30 04:53:00,
2013-03-30 01:08:00,31.9,28.0,30.00,NNW,336,0.0,0.0,84,0.00,,,0.00,weatherlink.com 1.10,2013-03-30 05:08:00,
2013-03-30 01:23:00,32.0,28.0,30.00,North,360,0.0,1.0,85,0.00,,,0.00,weatherlink.com 1.10,2013-03-30 05:23:00,
2013-03-30 01:38:00,31.9,28.0,30.00,North,360,0.0,0.0,84,0.00,,,0.00,weatherlink.com 1.10,2013-03-30 05:38:00,
2013-03-30 01:53:00,31.6,28.0,30.00,North,360,0.0,0.0,85,0.00,,,0.00,weatherlink.com 1.10,2013-03-30 05:53:00,
2013-03-30 02:08:00,31.4,27.0,30.00,North,360,0.0,0.0,85,0.00,,,0.00,weatherlink.com 1.10,2013-03-30 06:08:00,
2013-03-30 02:23:00,30.7,27.0,30.00,North,360,0.0,0.0,85,0.00,,,0.00,weatherlink.com 1.10,2013-03-30 06:23:00,
2013-03-30 02:38:00,30.1,26.0,30.00,North,360,0.0,0.0,86,0.00,,,0.00,weatherlink.com 1.10,2013-03-30 06:38:00,
2013-03-30 02:53:00,29.7,26.0,29.99,North,360,0.0,0.0,87,0.00,,,0.00,weatherlink.com 1.10,2013-03-30 06:53:00,
2013-03-30 03:08:00,29.4,27.0,29.99,North,360,0.0,0.0,89,0.00,,,0.00,weatherlink.com 1.10,2013-03-30 07:08:00,
2013-03-30 03:23:00,29.4,27.0,29.99,North,360,0.0,0.0,89,0.00,,,0.00,weatherlink.com 1.10,2013-03-30 07:23:00,
2013-03-30 03:39:00,29.2,26.0,29.99,North,360,0.0,0.0,89,0.00,,,0.00,weatherlink.com 1.10,2013-03-30 07:39:00,
2013-03-30 03:55:00,28.8,26.0,29.99,North,360,0.0,0.0,89,0.00,,,0.00,weatherlink.com 1.10,2013-03-30 07:55:00,
2013-03-30 04:09:00,28.6,26.0,29.99,North,360,0.0,0.0,90,0.00,,,0.00,weatherlink.com 1.10,2013-03-30 08:09:00,
2013-03-30 04:24:00,28.4,26.0,29.99,North,360,0.0,0.0,90,0.00,,,0.00,weatherlink.com 1.10,2013-03-30 08:24:00,
2013-03-30 04:39:00,28.3,26.0,29.99,North,360,0.0,0.0,91,0.00,,,0.00,weatherlink.com 1.10,2013-03-30 08:39:00,
2013-03-30 04:54:00,28.2,26.0,29.99,North,360,0.0,0.0,91,0.00,,,0.00,weatherlink.com 1.10,2013-03-30 08:54:00,
2013-03-30 05:09:00,28.1,26.0,29.99,North,360,0.0,0.0,91,0.00,,,0.00,weatherlink.com 1.10,2013-03-30 09:09:00,
2013-03-30 05:24:00,27.9,26.0,30.00,North,360,0.0,0.0,91,0.00,,,0.00,weatherlink.com 1.10,2013-03-30 09:24:00,
2013-03-30 05:39:00,27.6,25.0,30.00,North,360,0.0,0.0,91,0.00,,,0.00,weatherlink.com 1.10,2013-03-30 09:39:00,
2013-03-30 05:56:00,27.4,25.0,30.01,North,360,0.0,0.0,91,0.00,,,0.00,weatherlink.com 1.10,2013-03-30 09:56:00,
2013-03-30 06:09:00,27.3,25.0,30.01,North,360,0.0,0.0,92,0.00,,,0.00,weatherlink.com 1.10,2013-03-30 10:09:00,
2013-03-30 06:24:00,27.2,25.0,30.01,North,360,0.0,0.0,92,0.00,,,0.00,weatherlink.com 1.10,2013-03-30 10:24:00,
2013-03-30 06:39:00,27.1,25.0,30.02,North,360,0.0,0.0,92,0.00,,,0.00,weatherlink.com 1.10,2013-03-30 10:39:00,
2013-03-30 06:55:00,27.3,25.0,30.02,North,360,0.0,0.0,92,0.00,,,0.00,weatherlink.com 1.10,2013-03-30 10:55:00,
2013-03-30 07:10:00,27.9,26.0,30.02,North,360,0.0,0.0,93,0.00,,,0.00,weatherlink.com 1.10,2013-03-30 11:10:00,
2013-03-30 07:24:00,28.3,26.0,30.02,North,360,0.0,0.0,92,0.00,,,0.00,weatherlink.com 1.10,2013-03-30 11:24:00,
2013-03-30 07:39:00,28.7,27.0,30.03,North,360,0.0,0.0,92,0.00,,,0.00,weatherlink.com 1.10,2013-03-30 11:39:00,
2013-03-30 07:54:00,29.2,27.0,30.03,North,360,0.0,0.0,92,0.00,,,0.00,weatherlink.com 1.10,2013-03-30 11:54:00,
2013-03-30 08:10:00,29.7,27.0,30.04,North,360,0.0,0.0,91,0.00,,,0.00,weatherlink.com 1.10,2013-03-30 12:10:00,
2013-03-30 08:25:00,30.2,28.0,30.04,North,360,0.0,0.0,90,0.00,,,0.00,weatherlink.com 1.10,2013-03-30 12:25:00,
2013-03-30 08:40:00,31.5,29.0,30.04,North,360,0.0,0.0,90,0.00,,,0.00,weatherlink.com 1.10,2013-03-30 12:40:00,
2013-03-30 08:55:00,33.9,29.0,30.04,North,360,0.0,0.0,83,0.00,,,0.00,weatherlink.com 1.10,2013-03-30 12:55:00,
2013-03-30 09:10:00,38.0,28.0,30.04,North,5,0.0,1.0,67,0.00,,,0.00,weatherlink.com 1.10,2013-03-30 13:10:00,
2013-03-30 09:25:00,39.7,27.0,30.04,West,272,0.0,1.0,62,0.00,,,0.00,weatherlink.com 1.10,2013-03-30 13:25:00,
2013-03-30 09:40:00,41.1,27.0,30.03,West,271,0.0,1.0,58,0.00,,,0.00,weatherlink.com 1.10,2013-03-30 13:40:00,
2013-03-30 09:55:00,42.2,26.0,30.03,WSW,248,0.0,3.0,54,0.00,,,0.00,weatherlink.com 1.10,2013-03-30 13:55:00,
2013-03-30 10:10:00,43.0,26.0,30.03,NW,317,0.0,1.0,52,0.00,,,0.00,weatherlink.com 1.10,2013-03-30 14:10:00,
2013-03-30 10:25:00,44.9,26.0,30.03,NNW,340,0.0,3.0,47,0.00,,,0.00,weatherlink.com 1.10,2013-03-30 14:25:00,
2013-03-30 10:40:00,45.6,24.0,30.03,NNE,19,0.0,6.0,42,0.00,,,0.00,weatherlink.com 1.10,2013-03-30 14:40:00,
2013-03-30 10:56:00,46.3,24.0,30.02,NNE,23,6.0,6.0,41,0.00,,,0.00,weatherlink.com 1.10,2013-03-30 14:56:00,
2013-03-30 11:11:00,46.8,25.0,30.02,NNE,14,3.0,7.0,42,0.00,,,0.00,weatherlink.com 1.10,2013-03-30 15:11:00,
2013-03-30 11:41:00,47.9,24.0,30.01,SSW,208,0.0,4.0,39,0.00,,,0.00,weatherlink.com 1.10,2013-03-30 15:41:00,
2013-03-30 12:26:00,49.4,17.0,30.01,ENE,67,0.0,8.0,28,0.00,,,0.00,weatherlink.com 1.10,2013-03-30 16:26:00,
2013-03-30 12:41:00,50.6,19.0,30.00,WNW,296,3.0,7.0,29,0.00,,,0.00,weatherlink.com 1.10,2013-03-30 16:41:00,
2013-03-30 12:56:00,50.6,20.0,30.00,North,5,0.0,5.0,30,0.00,,,0.00,weatherlink.com 1.10,2013-03-30 16:56:00,
2013-03-30 13:12:00,50.8,19.0,29.99,WNW,287,2.0,8.0,28,0.00,,,0.00,weatherlink.com 1.10,2013-03-30 17:12:00,
2013-03-30 13:27:00,51.6,18.0,29.99,NNW,344,3.0,9.0,27,0.00,,,0.00,weatherlink.com 1.10,2013-03-30 17:27:00,
2013-03-30 13:42:00,52.2,20.0,29.99,North,11,1.0,6.0,28,0.00,,,0.00,weatherlink.com 1.10,2013-03-30 17:42:00,
2013-03-30 13:57:00,52.1,19.0,29.99,North,355,2.0,4.0,27,0.00,,,0.00,weatherlink.com 1.10,2013-03-30 17:57:00,
2013-03-30 14:12:00,52.3,20.0,29.98,SSW,211,2.0,6.0,28,0.00,,,0.00,weatherlink.com 1.10,2013-03-30 18:12:00,
2013-03-30 14:27:00,53.0,16.0,29.98,SW,234,0.0,7.0,23,0.00,,,0.00,weatherlink.com 1.10,2013-03-30 18:27:00,
2013-03-30 14:42:00,53.2,17.0,29.98,SW,222,4.0,9.0,24,0.00,,,0.00,weatherlink.com 1.10,2013-03-30 18:42:00,
2013-03-30 14:57:00,53.5,17.0,29.98,WSW,243,0.0,6.0,24,0.00,,,0.00,weatherlink.com 1.10,2013-03-30 18:57:00,
2013-03-30 15:12:00,53.9,18.0,29.98,SW,227,5.0,8.0,24,0.00,,,0.00,weatherlink.com 1.10,2013-03-30 19:12:00,
2013-03-30 15:27:00,53.2,17.0,29.98,West,267,4.0,10.0,24,0.00,,,0.00,weatherlink.com 1.10,2013-03-30 19:27:00,
2013-03-30 15:42:00,53.5,15.0,29.98,North,360,2.0,8.0,22,0.00,,,0.00,weatherlink.com 1.10,2013-03-30 19:42:00,
2013-03-30 15:58:00,52.3,15.0,29.98,WNW,297,0.0,9.0,23,0.00,,,0.00,weatherlink.com 1.10,2013-03-30 19:58:00,
2013-03-30 16:13:00,51.8,15.0,29.98,NW,316,0.0,6.0,23,0.00,,,0.00,weatherlink.com 1.10,2013-03-30 20:13:00,
2013-03-30 16:28:00,51.8,14.0,29.98,NNW,329,2.0,13.0,22,0.00,,,0.00,weatherlink.com 1.10,2013-03-30 20:28:00,
2013-03-30 16:43:00,52.1,14.0,29.98,SW,223,1.0,5.0,22,0.00,,,0.00,weatherlink.com 1.10,2013-03-30 20:43:00,
2013-03-30 16:58:00,50.6,15.0,29.98,SW,229,5.0,9.0,24,0.00,,,0.00,weatherlink.com 1.10,2013-03-30 20:58:00,
2013-03-30 17:13:00,50.4,16.0,29.99,WSW,255,2.0,8.0,25,0.00,,,0.00,weatherlink.com 1.10,2013-03-30 21:13:00,
2013-03-30 17:28:00,50.0,14.0,29.99,WNW,290,6.0,7.0,24,0.00,,,0.00,weatherlink.com 1.10,2013-03-30 21:28:00,
2013-03-30 17:43:00,49.5,15.0,30.00,NNW,348,2.0,5.0,25,0.00,,,0.00,weatherlink.com 1.10,2013-03-30 21:43:00,
2013-03-30 17:58:00,49.0,13.0,30.00,NNE,19,3.0,12.0,24,0.00,,,0.00,weatherlink.com 1.10,2013-03-30 21:58:00,
2013-03-30 18:13:00,48.5,14.0,30.00,NNW,344,1.0,5.0,25,0.00,,,0.00,weatherlink.com 1.10,2013-03-30 22:13:00,
2013-03-30 18:28:00,47.9,14.0,30.01,NW,315,0.0,5.0,26,0.00,,,0.00,weatherlink.com 1.10,2013-03-30 22:28:00,
2013-03-30 18:43:00,47.1,15.0,30.01,NW,307,0.0,8.0,27,0.00,,,0.00,weatherlink.com 1.10,2013-03-30 22:43:00,
2013-03-30 18:58:00,46.2,13.0,30.02,West,269,0.0,2.0,26,0.00,,,0.00,weatherlink.com 1.10,2013-03-30 22:58:00,
2013-03-30 19:13:00,45.2,14.0,30.02,North,360,0.0,0.0,28,0.00,,,0.00,weatherlink.com 1.10,2013-03-30 23:13:00,
2013-03-30 19:28:00,44.2,14.0,30.03,North,360,0.0,0.0,29,0.00,,,0.00,weatherlink.com 1.10,2013-03-30 23:28:00,
2013-03-30 19:43:00,43.2,14.0,30.03,North,360,0.0,0.0,31,0.00,,,0.00,weatherlink.com 1.10,2013-03-30 23:43:00,
2013-03-30 19:58:00,42.2,15.0,30.04,North,360,0.0,0.0,33,0.00,,,0.00,weatherlink.com 1.10,2013-03-30 23:58:00,
2013-03-30 20:13:00,40.1,19.0,30.05,North,360,0.0,0.0,43,0.00,,,0.00,weatherlink.com 1.10,2013-03-31 00:13:00,
2013-03-30 20:28:00,38.1,19.0,30.05,North,360,0.0,0.0,47,0.00,,,0.00,weatherlink.com 1.10,2013-03-31 00:28:00,
2013-03-30 20:43:00,36.9,18.0,30.06,North,360,0.0,0.0,47,0.00,,,0.00,weatherlink.com 1.10,2013-03-31 00:43:00,
2013-03-30 20:58:00,36.8,18.0,30.06,North,360,0.0,0.0,47,0.00,,,0.00,weatherlink.com 1.10,2013-03-31 00:58:00,
2013-03-30 21:13:00,35.9,20.0,30.07,North,360,0.0,0.0,53,0.00,,,0.00,weatherlink.com 1.10,2013-03-31 01:13:00,
2013-03-30 21:28:00,34.4,20.0,30.07,North,360,0.0,0.0,57,0.00,,,0.00,weatherlink.com 1.10,2013-03-31 01:28:00,
2013-03-30 21:45:00,33.0,22.0,30.07,North,360,0.0,0.0,63,0.00,,,0.00,weatherlink.com 1.10,2013-03-31 01:45:00,
2013-03-30 21:58:00,32.4,21.0,30.07,North,360,0.0,0.0,62,0.00,,,0.00,weatherlink.com 1.10,2013-03-31 01:58:00,
2013-03-30 22:13:00,32.0,21.0,30.07,North,360,0.0,0.0,63,0.00,,,0.00,weatherlink.com 1.10,2013-03-31 02:13:00,
2013-03-30 22:28:00,31.1,21.0,30.07,North,360,0.0,0.0,66,0.00,,,0.00,weatherlink.com 1.10,2013-03-31 02:28:00,
2013-03-30 22:43:00,30.1,22.0,30.07,North,360,0.0,0.0,71,0.00,,,0.00,weatherlink.com 1.10,2013-03-31 02:43:00,
2013-03-30 22:58:00,29.2,21.0,30.07,North,360,0.0,0.0,71,0.00,,,0.00,weatherlink.com 1.10,2013-03-31 02:58:00,
2013-03-30 23:15:00,28.8,20.0,30.08,North,360,0.0,0.0,70,0.00,,,0.00,weatherlink.com 1.10,2013-03-31 03:15:00,
2013-03-30 23:29:00,29.2,21.0,30.07,North,360,0.0,0.0,71,0.00,,,0.00,weatherlink.com 1.10,2013-03-31 03:29:00,
2013-03-30 23:44:00,29.6,22.0,30.07,North,360,0.0,0.0,73,0.00,,,0.00,weatherlink.com 1.10,2013-03-31 03:44:00,
2013-03-30 23:59:00,29.4,22.0,30.07,North,360,0.0,0.0,73,0.00,,,0.00,weatherlink.com 1.10,2013-03-31 03:59:00,